.
WxDataArchive / Data Records for 2011-09-24
2011-09-23 September 2011 2011-09-25

Data Records for Saturday, 24 September 2011

Time	Temp	Chill	HIndex	Humid	Dewpt	 Wind 	HiWind	WindDir	Rain 	Barom 
-----	----	-----	------	-----	-----	------	------	-------	-----	----- 
00:00	49.5	49.5	49.5	88	46.1	0	0	---	0.00	30.011 
00:05	49.4	49.4	49.4	89	46.3	0	0	---	0.00	30.011 
00:10	49.2	49.2	49.2	89	46.1	0	0	---	0.00	30.011 
00:15	49.2	49.2	49.2	89	46.1	0	0	---	0.00	30.011 
00:20	48.9	48.9	48.9	90	46.1	0	0	---	0.00	30.011 
00:25	48.8	48.8	48.8	90	46.0	0	0	---	0.00	30.011 
00:30	48.6	48.6	48.6	90	45.8	0	0	---	0.00	30.011 
00:35	48.5	48.5	48.5	90	45.7	0	0	---	0.00	30.011 
00:40	48.3	48.3	48.3	90	45.5	0	0	---	0.00	30.011 
00:45	48.2	48.2	48.2	91	45.7	0	0	---	0.00	30.013 
00:50	48.2	48.2	48.2	91	45.7	0	0	---	0.00	30.013 
00:55	48.0	48.0	48.0	91	45.5	0	0	---	0.00	30.013 
01:00	47.9	47.9	47.9	91	45.4	0	0	---	0.00	30.013 
01:05	47.7	47.7	47.7	91	45.2	0	0	---	0.00	30.013 
01:10	47.6	47.6	47.6	92	45.4	0	0	---	0.00	30.013 
01:15	47.4	47.4	47.4	92	45.2	0	0	---	0.00	30.008 
01:20	47.3	47.3	47.3	92	45.1	0	0	---	0.00	30.008 
01:25	47.1	47.1	47.1	92	44.9	0	0	---	0.00	30.008 
01:30	47.1	47.1	47.1	92	44.9	0	0	---	0.00	30.004 
01:35	47.0	47.0	47.0	92	44.8	0	0	---	0.00	30.004 
01:40	46.8	46.8	46.8	92	44.6	0	0	---	0.00	30.004 
01:45	46.8	46.8	46.8	92	44.6	0	0	---	0.00	30.001 
01:50	46.7	46.7	46.7	92	44.5	0	0	---	0.00	30.001 
01:55	46.4	46.4	46.4	92	44.2	0	0	---	0.00	30.001 
02:00	46.2	46.2	46.2	92	44.0	0	0	---	0.00	29.999 
02:05	46.2	46.2	46.2	93	44.3	0	0	---	0.00	29.999 
02:10	46.1	46.1	46.1	93	44.2	0	0	---	0.00	29.999 
02:15	46.1	46.1	46.1	93	44.2	0	0	---	0.00	29.998 
02:20	46.1	46.1	46.1	93	44.2	0	0	---	0.00	29.998 
02:25	46.1	46.1	46.1	93	44.2	0	0	---	0.00	29.998 
02:30	46.1	46.1	46.1	93	44.2	0	0	---	0.00	29.996 
02:35	46.0	46.0	46.0	93	44.1	0	0	---	0.00	29.996 
02:40	46.0	46.0	46.0	93	44.1	0	0	---	0.00	29.996 
02:45	46.0	46.0	46.0	93	44.1	0	0	---	0.00	29.999 
02:50	45.8	45.8	45.8	93	43.9	0	0	---	0.00	29.999 
02:55	45.7	45.7	45.7	94	44.1	0	0	---	0.00	29.999 
03:00	45.7	45.7	45.7	94	44.1	0	0	---	0.00	29.998 
03:05	45.5	45.5	45.5	94	43.9	0	0	---	0.00	29.998 
03:10	45.5	45.5	45.5	94	43.9	0	0	---	0.00	29.998 
03:15	45.4	45.4	45.4	94	43.8	0	0	---	0.00	29.991 
03:20	45.2	45.2	45.2	94	43.6	0	0	---	0.00	29.991 
03:25	45.2	45.2	45.2	94	43.6	0	0	---	0.00	29.991 
03:30	45.1	45.1	45.1	94	43.5	0	0	---	0.00	29.987 
03:35	44.9	44.9	44.9	94	43.3	0	0	---	0.00	29.987 
03:40	44.9	44.9	44.9	94	43.3	0	0	---	0.00	29.987 
03:45	44.9	44.9	44.9	94	43.3	0	0	---	0.00	29.987 
03:50	44.9	44.9	44.9	94	43.3	0	0	---	0.00	29.987 
03:55	44.9	44.9	44.9	94	43.3	0	0	---	0.00	29.987 
04:00	45.1	45.1	45.1	94	43.5	0	0	---	0.00	29.994 
04:05	45.1	45.1	45.1	94	43.5	0	0	---	0.00	29.994 
04:10	45.2	45.2	45.2	94	43.6	0	0	---	0.00	29.994 
04:15	45.2	45.2	45.2	94	43.6	0	0	---	0.00	29.997 
04:20	45.2	45.2	45.2	94	43.6	0	0	---	0.00	29.997 
04:25	45.2	45.2	45.2	94	43.6	0	0	---	0.00	29.997 
04:30	45.1	45.1	45.1	94	43.5	0	0	---	0.00	29.994 
04:35	45.1	45.1	45.1	94	43.5	0	0	---	0.00	29.994 
04:40	44.9	44.9	44.9	94	43.3	0	0	---	0.00	29.994 
04:45	44.9	44.9	44.9	94	43.3	0	0	---	0.00	29.996 
04:50	44.8	44.8	44.8	94	43.2	0	0	---	0.00	29.996 
04:55	44.8	44.8	44.8	95	43.5	0	0	---	0.00	29.996 
05:00	44.8	44.8	44.8	95	43.5	0	0	---	0.00	29.997 
05:05	44.9	44.9	44.9	95	43.6	0	0	---	0.00	29.997 
05:10	45.2	45.2	45.2	95	43.9	0	0	---	0.00	29.997 
05:15	45.2	45.2	45.2	95	43.9	0	0	---	0.00	29.997 
05:20	45.2	45.2	45.2	95	43.9	0	0	---	0.00	29.997 
05:25	45.4	45.4	45.4	95	44.1	0	0	---	0.00	29.997 
05:30	45.5	45.5	45.5	95	44.2	0	0	---	0.00	29.994 
05:35	45.7	45.7	45.7	95	44.4	0	0	---	0.00	29.994 
05:40	45.7	45.7	45.7	95	44.4	0	0	---	0.00	29.994 
05:45	45.8	45.8	45.8	95	44.4	0	0	---	0.00	29.998 
05:50	46.0	46.0	46.0	95	44.6	0	0	---	0.00	29.998 
05:55	46.1	46.1	46.1	95	44.7	0	0	---	0.00	29.998 
06:00	46.2	46.2	46.2	95	44.8	0	0	---	0.00	29.998 
06:05	46.2	46.2	46.2	95	44.8	0	0	---	0.00	29.998 
06:10	46.2	46.2	46.2	95	44.8	0	0	---	0.00	29.998 
06:15	46.4	46.4	46.4	95	45.0	0	0	---	0.00	29.997 
06:20	46.4	46.4	46.4	95	45.0	0	0	---	0.00	29.997 
06:25	46.5	46.5	46.5	95	45.1	0	0	---	0.00	29.997 
06:30	46.7	46.7	46.7	95	45.3	0	0	---	0.00	29.997 
06:35	46.7	46.7	46.7	95	45.3	0	0	---	0.00	29.997 
06:40	46.7	46.7	46.7	96	45.6	0	0	---	0.00	29.997 
06:45	46.8	46.8	46.8	96	45.7	0	0	---	0.00	29.999 
06:50	46.8	46.8	46.8	96	45.7	0	0	---	0.00	29.999 
06:55	47.0	47.0	47.0	96	45.9	0	0	---	0.00	29.999 
07:00	47.1	47.1	47.1	96	46.0	0	0	---	0.00	30.000 
07:05	47.3	47.3	47.3	96	46.2	0	0	---	0.00	30.000 
07:10	47.4	47.4	47.4	96	46.3	0	0	---	0.00	30.000 
07:15	47.4	47.4	47.4	96	46.3	0	0	---	0.00	30.004 
07:20	47.7	47.7	47.7	96	46.6	0	0	---	0.00	30.004 
07:25	47.9	47.9	47.9	96	46.8	0	0	---	0.00	30.004 
07:30	47.9	47.9	47.9	96	46.8	0	0	---	0.00	30.003 
07:35	47.9	47.9	47.9	96	46.8	0	0	---	0.00	30.003 
07:40	47.9	47.9	47.9	96	46.8	0	0	---	0.00	30.003 
07:45	47.7	47.7	47.7	96	46.6	0	1	112	0.00	30.007 
07:50	47.7	47.7	47.7	96	46.6	0	0	---	0.00	30.007 
07:55	47.9	47.9	47.9	96	46.8	0	0	---	0.00	30.007 
08:00	47.9	47.9	47.9	96	46.8	0	0	---	0.00	30.010 
08:05	47.9	47.9	47.9	96	46.8	0	0	---	0.00	30.010 
08:10	47.9	47.9	47.9	96	46.8	0	1	112	0.00	30.010 
08:15	47.9	47.9	47.9	96	46.8	0	1	112	0.00	30.010 
08:20	48.0	48.0	48.0	96	46.9	0	2	112	0.00	30.010 
08:25	48.0	48.0	48.0	96	46.9	0	1	112	0.00	30.010 
08:30	48.2	48.2	48.2	96	47.1	0	1	112	0.00	30.014 
08:35	48.3	48.3	48.3	96	47.2	0	1	112	0.00	30.014 
08:40	48.8	48.8	48.8	96	47.7	0	3	112	0.00	30.014 
08:45	49.2	49.2	49.2	96	48.1	0	2	112	0.00	30.010 
08:50	49.5	49.5	49.5	96	48.4	0	2	112	0.00	30.010 
08:55	49.8	49.8	49.8	96	48.7	1	3	90	0.00	30.010 
09:00	50.1	50.1	50.1	96	49.0	1	3	90	0.00	30.012 
09:05	50.2	50.2	50.2	96	49.1	1	3	90	0.00	30.012 
09:10	50.5	50.5	50.5	96	49.4	1	3	90	0.00	30.012 
09:15	50.7	50.7	50.7	96	49.6	1	4	90	0.00	30.016 
09:20	50.8	50.8	50.8	96	49.7	0	3	90	0.00	30.016 
09:25	51.0	51.0	51.0	96	49.9	1	4	90	0.00	30.016 
09:30	51.0	51.0	51.0	96	49.9	1	5	90	0.00	30.016 
09:35	51.1	51.1	51.1	95	49.7	0	3	112	0.00	30.016 
09:40	51.3	51.3	51.3	95	49.9	0	2	112	0.00	30.016 
09:45	51.3	51.3	51.3	95	49.9	0	1	112	0.00	30.020 
09:50	51.3	51.3	51.3	95	49.9	0	2	112	0.00	30.020 
09:55	51.3	51.3	51.3	94	49.6	1	3	112	0.00	30.020 
10:00	51.6	51.6	51.6	94	49.9	0	2	112	0.00	30.029 
10:05	51.7	51.7	51.7	93	49.7	0	1	112	0.00	30.029 
10:10	51.9	51.9	51.9	93	49.9	0	2	112	0.00	30.029 
10:15	52.0	52.0	52.0	92	49.7	0	2	112	0.00	30.033 
10:20	52.2	52.2	52.2	92	49.9	0	1	112	0.00	30.033 
10:25	52.3	52.3	52.3	92	50.0	1	2	135	0.00	30.033 
10:30	52.6	52.6	52.6	91	50.0	0	1	135	0.00	30.033 
10:35	52.6	52.6	52.6	90	49.7	0	2	135	0.00	30.033 
10:40	52.6	52.6	52.6	89	49.4	0	2	135	0.00	30.033 
10:45	52.8	52.8	52.8	89	49.6	0	1	135	0.00	30.041 
10:50	52.9	52.9	52.9	89	49.7	0	2	135	0.00	30.041 
10:55	52.9	52.9	52.9	89	49.7	0	3	135	0.00	30.041 
11:00	53.1	53.1	53.1	88	49.6	0	1	135	0.00	30.034 
11:05	53.1	53.1	53.1	88	49.6	0	2	135	0.00	30.034 
11:10	53.1	53.1	53.1	88	49.6	0	2	135	0.00	30.034 
11:15	53.2	53.2	53.2	88	49.7	0	1	135	0.00	30.036 
11:20	53.2	53.2	53.2	88	49.7	0	2	135	0.01	30.036 
11:25	53.2	53.2	53.2	89	50.0	0	2	135	0.00	30.036 
11:30	53.2	53.2	53.2	89	50.0	0	1	135	0.00	30.039 
11:35	53.2	53.2	53.2	89	50.0	1	2	135	0.00	30.039 
11:40	53.2	53.2	53.2	90	50.3	1	3	90	0.00	30.039 
11:45	53.2	53.2	53.2	90	50.3	0	1	90	0.00	30.036 
11:50	53.6	53.6	53.6	91	51.0	0	2	90	0.00	30.036 
11:55	54.1	54.1	54.1	91	51.5	1	3	90	0.00	30.036 
12:00	54.5	54.5	54.5	91	51.9	1	2	90	0.00	30.034 
12:05	54.7	54.7	54.7	91	52.1	2	5	90	0.00	30.034 
12:10	54.8	54.8	54.8	91	52.2	1	4	68	0.00	30.034 
12:15	55.0	55.0	55.0	90	52.1	1	3	90	0.00	30.034 
12:20	55.0	55.0	55.0	90	52.1	1	3	90	0.00	30.034 
12:25	55.0	55.0	55.0	90	52.1	1	4	90	0.00	30.034 
12:30	55.0	55.0	55.0	89	51.8	1	3	68	0.00	30.032 
12:35	55.1	55.1	55.1	89	51.9	1	4	90	0.00	30.032 
12:40	55.3	55.3	55.3	90	52.4	1	4	90	0.00	30.032 
12:45	55.4	55.4	55.4	90	52.5	1	3	90	0.00	30.032 
12:50	55.6	55.6	55.6	89	52.4	1	5	90	0.00	30.032 
12:55	55.7	55.7	55.7	89	52.5	0	2	112	0.00	30.032 
13:00	55.9	55.9	55.9	89	52.7	0	2	112	0.00	30.030 
13:05	56.2	56.2	56.2	89	53.0	1	3	112	0.00	30.030 
13:10	56.2	56.2	56.2	88	52.7	1	4	112	0.00	30.030 
13:15	56.0	56.0	56.0	88	52.5	1	4	90	0.01	30.031 
13:20	56.0	56.0	56.0	89	52.8	0	1	90	0.00	30.031 
13:25	56.0	56.0	56.0	88	52.5	0	2	90	0.00	30.031 
13:30	56.2	56.2	56.2	88	52.7	1	3	90	0.00	30.021 
13:35	56.6	56.6	56.6	88	53.1	1	5	68	0.00	30.021 
13:40	57.0	57.0	57.0	86	52.9	1	4	112	0.00	30.021 
13:45	57.6	57.6	57.6	85	53.1	1	5	112	0.00	30.018 
13:50	57.8	57.8	57.8	84	53.0	1	5	90	0.00	30.018 
13:55	58.0	58.0	58.0	82	52.5	1	4	112	0.00	30.018 
14:00	58.0	58.0	58.0	82	52.5	2	5	112	0.00	30.013 
14:05	58.0	58.0	58.0	82	52.5	1	5	90	0.00	30.013 
14:10	58.0	58.0	58.0	82	52.5	2	5	90	0.00	30.013 
14:15	57.8	57.8	57.8	83	52.7	0	4	90	0.00	30.010 
14:20	58.1	58.1	58.1	84	53.3	0	4	90	0.00	30.010 
14:25	58.3	58.3	58.3	83	53.2	1	3	90	0.00	30.010 
14:30	58.4	58.4	58.4	83	53.3	1	4	90	0.00	30.001 
14:35	58.6	58.6	58.6	83	53.4	1	4	90	0.00	30.001 
14:40	58.6	58.6	58.6	82	53.1	2	5	90	0.00	30.001 
14:45	58.7	58.7	58.7	82	53.2	1	5	90	0.00	29.999 
14:50	59.0	59.0	59.0	81	53.2	1	4	90	0.00	29.999 
14:55	59.2	59.2	59.2	80	53.0	2	5	112	0.00	29.999 
15:00	59.6	59.6	59.6	81	53.8	2	6	90	0.00	29.990 
15:05	59.8	59.8	59.8	79	53.3	3	6	90	0.00	29.990 
15:10	59.5	59.5	59.5	79	53.0	4	7	90	0.00	29.990 
15:15	59.2	59.2	59.2	80	53.0	3	6	90	0.00	29.988 
15:20	58.9	58.9	58.9	81	53.1	1	4	90	0.00	29.988 
15:25	58.9	58.9	58.9	83	53.7	1	9	90	0.00	29.988 
15:30	58.6	58.6	58.6	85	54.1	1	4	68	0.01	29.997 
15:35	58.3	58.3	58.3	86	54.1	1	3	112	0.00	29.997 
15:40	58.1	58.1	58.1	87	54.2	0	3	112	0.00	29.997 
15:45	58.0	58.0	58.0	88	54.5	1	4	68	0.00	29.999 
15:50	58.1	58.1	58.1	88	54.6	1	4	135	0.00	29.999 
15:55	58.4	58.4	58.4	88	54.9	0	2	135	0.00	29.999 
16:00	58.9	58.9	58.9	88	55.3	0	2	135	0.00	29.989 
16:05	59.3	59.3	59.3	88	55.7	1	6	135	0.00	29.989 
16:10	59.5	59.5	59.5	85	55.0	1	4	68	0.00	29.989 
16:15	59.5	59.5	59.5	84	54.7	0	2	68	0.00	29.984 
16:20	59.3	59.3	59.3	84	54.5	1	5	68	0.00	29.984 
16:25	59.2	59.2	59.2	84	54.4	1	5	68	0.00	29.984 
16:30	59.2	59.2	59.2	83	54.0	1	4	90	0.00	29.971 
16:35	59.3	59.3	59.3	83	54.1	0	2	90	0.00	29.971 
16:40	59.5	59.5	59.5	83	54.3	0	3	135	0.00	29.971 
16:45	59.6	59.6	59.6	82	54.1	1	4	68	0.00	29.980 
16:50	59.6	59.6	59.6	81	53.8	0	2	112	0.00	29.980 
16:55	59.6	59.6	59.6	81	53.8	0	3	270	0.00	29.980 
17:00	59.5	59.5	59.5	79	53.0	0	1	315	0.00	29.984 
17:05	58.1	58.1	58.1	80	52.0	1	3	315	0.00	29.984 
17:10	56.7	56.7	56.7	82	51.3	1	3	270	0.00	29.984 
17:15	55.9	55.9	55.9	85	51.5	1	3	270	0.01	29.986 
17:20	55.4	55.4	55.4	87	51.6	2	4	270	0.03	29.986 
17:25	54.8	54.8	54.8	89	51.6	4	7	270	0.13	29.986 
17:30	54.2	54.2	54.2	90	51.3	3	5	270	0.18	29.979 
17:35	54.1	54.1	54.1	92	51.8	1	6	270	0.01	29.979 
17:40	54.1	54.1	54.1	93	52.1	0	4	90	0.00	29.979 
17:45	54.2	54.2	54.2	93	52.2	0	2	90	0.00	30.002 
17:50	54.2	54.2	54.2	93	52.2	0	1	90	0.00	30.002 
17:55	54.2	54.2	54.2	93	52.2	0	1	90	0.00	30.002 
18:00	54.4	54.4	54.4	94	52.7	0	2	90	0.00	30.004 
18:05	54.2	54.2	54.2	94	52.5	0	2	90	0.00	30.004 
18:10	54.4	54.4	54.4	94	52.7	0	2	90	0.00	30.004 
18:15	54.4	54.4	54.4	94	52.7	0	2	90	0.00	30.003 
18:20	54.4	54.4	54.4	94	52.7	0	1	90	0.00	30.003 
18:25	54.4	54.4	54.4	95	53.0	0	0	---	0.00	30.003 
18:30	54.5	54.5	54.5	95	53.1	0	0	---	0.01	30.001 
18:35	54.5	54.5	54.5	95	53.1	0	1	90	0.00	30.001 
18:40	54.5	54.5	54.5	95	53.1	0	1	90	0.00	30.001 
18:45	54.5	54.5	54.5	95	53.1	0	1	90	0.00	29.998 
18:50	54.5	54.5	54.5	95	53.1	0	0	---	0.00	29.998 
18:55	54.5	54.5	54.5	95	53.1	0	0	---	0.00	29.998 
19:00	54.4	54.4	54.4	95	53.0	0	0	---	0.00	30.003 
19:05	54.4	54.4	54.4	95	53.0	0	0	---	0.00	30.003 
19:10	54.4	54.4	54.4	95	53.0	0	0	---	0.00	30.003 
19:15	54.4	54.4	54.4	95	53.0	0	0	---	0.00	30.001 
19:20	54.2	54.2	54.2	95	52.8	0	0	---	0.00	30.001 
19:25	54.1	54.1	54.1	95	52.7	0	2	90	0.00	30.001 
19:30	53.9	53.9	53.9	95	52.5	0	0	---	0.00	30.001 
19:35	53.9	53.9	53.9	96	52.8	0	0	---	0.00	30.001 
19:40	53.8	53.8	53.8	95	52.4	0	0	---	0.00	30.001 
19:45	53.5	53.5	53.5	95	52.1	0	0	---	0.00	29.996 
19:50	53.3	53.3	53.3	95	51.9	0	0	---	0.00	29.996 
19:55	53.1	53.1	53.1	95	51.7	0	0	---	0.00	29.996 
20:00	52.9	52.9	52.9	96	51.8	0	0	---	0.00	30.004 
20:05	52.9	52.9	52.9	96	51.8	0	0	---	0.00	30.004 
20:10	52.9	52.9	52.9	96	51.8	0	0	---	0.00	30.004 
20:15	52.9	52.9	52.9	96	51.8	0	1	90	0.00	30.002 
20:20	53.1	53.1	53.1	96	52.0	0	1	90	0.00	30.002 
20:25	52.9	52.9	52.9	96	51.8	0	2	90	0.00	30.002 
20:30	52.9	52.9	52.9	96	51.8	0	2	90	0.00	30.003 
20:35	52.9	52.9	52.9	96	51.8	1	3	90	0.00	30.003 
20:40	53.1	53.1	53.1	96	52.0	0	2	90	0.00	30.003 
20:45	53.1	53.1	53.1	96	52.0	0	1	90	0.00	30.015 
20:50	53.1	53.1	53.1	96	52.0	0	1	90	0.00	30.015 
20:55	53.1	53.1	53.1	96	52.0	0	1	90	0.00	30.015 
21:00	52.9	52.9	52.9	96	51.8	0	1	90	0.00	30.018 
21:05	52.9	52.9	52.9	96	51.8	0	1	90	0.00	30.018 
21:10	53.1	53.1	53.1	96	52.0	0	1	90	0.00	30.018 
21:15	53.1	53.1	53.1	96	52.0	0	2	90	0.00	30.018 
21:20	53.2	53.2	53.2	96	52.1	0	1	90	0.00	30.018 
21:25	53.2	53.2	53.2	96	52.1	0	1	90	0.00	30.018 
21:30	53.3	53.3	53.3	96	52.2	0	2	90	0.00	30.022 
21:35	53.3	53.3	53.3	96	52.2	0	2	90	0.00	30.022 
21:40	53.5	53.5	53.5	96	52.4	0	1	90	0.00	30.022 
21:45	53.5	53.5	53.5	96	52.4	0	1	90	0.00	30.023 
21:50	53.5	53.5	53.5	96	52.4	0	1	90	0.00	30.023 
21:55	53.6	53.6	53.6	96	52.5	0	1	90	0.00	30.023 
22:00	53.6	53.6	53.6	96	52.5	0	2	90	0.00	30.017 
22:05	53.8	53.8	53.8	96	52.7	0	1	90	0.00	30.017 
22:10	53.8	53.8	53.8	96	52.7	0	1	90	0.00	30.017 
22:15	53.8	53.8	53.8	96	52.7	0	2	90	0.00	30.018 
22:20	53.8	53.8	53.8	96	52.7	0	2	90	0.00	30.018 
22:25	53.8	53.8	53.8	96	52.7	0	1	90	0.00	30.018 
22:30	53.8	53.8	53.8	96	52.7	0	0	---	0.00	30.019 
22:35	53.8	53.8	53.8	96	52.7	0	0	---	0.00	30.019 
22:40	53.8	53.8	53.8	96	52.7	0	1	90	0.00	30.019 
22:45	53.8	53.8	53.8	96	52.7	0	0	---	0.00	30.019 
22:50	53.9	53.9	53.9	96	52.8	0	1	90	0.00	30.019 
22:55	53.9	53.9	53.9	96	52.8	0	1	90	0.00	30.019 
23:00	53.9	53.9	53.9	96	52.8	0	1	90	0.00	30.019 
23:05	53.9	53.9	53.9	96	52.8	0	0	---	0.00	30.019 
23:10	53.9	53.9	53.9	96	52.8	0	0	---	0.00	30.019 
23:15	53.9	53.9	53.9	96	52.8	0	0	---	0.00	30.014 
23:20	53.8	53.8	53.8	96	52.7	0	0	---	0.00	30.014 
23:25	53.8	53.8	53.8	96	52.7	0	0	---	0.00	30.014 
23:30	53.8	53.8	53.8	96	52.7	0	0	---	0.00	30.014 
23:35	53.8	53.8	53.8	96	52.7	0	0	---	0.00	30.014 
23:40	53.8	53.8	53.8	96	52.7	0	0	---	0.00	30.014 
23:45	53.8	53.8	53.8	96	52.7	0	0	---	0.00	30.014 
23:50	53.9	53.9	53.9	96	52.8	0	0	---	0.00	30.014 
23:55	53.9	53.9	53.9	96	52.8	0	0	---	0.00	30.014 

CoCoRaHS
IN-AL-39
A2 Web Hosting
Creative Commons License
GoDaddy
search engine by freefind advanced

loaded 2018-11-20 06:20:03 • last modified 2010-11-18 10:43:29
Privacy PolicyDisclaimer
• wx.awcolley.com is powered by PmWiki v.2002016 •
• all content (unless otherwise noted) © 2018 A W Colley